sensor_id;sensor_type;location;lat;lon;timestamp;P1;durP1;ratioP1;P2;durP2;ratioP2
6127;SDS011;7073;42.672;23.256;2023-08-07T00:01:55;2.77;;;2.57;;
6127;SDS011;7073;42.672;23.256;2023-08-07T00:04:21;2.10;;;2.00;;
6127;SDS011;7073;42.672;23.256;2023-08-07T00:06:48;2.50;;;2.30;;
6127;SDS011;7073;42.672;23.256;2023-08-07T00:09:14;3.03;;;2.83;;
6127;SDS011;7073;42.672;23.256;2023-08-07T00:11:42;2.33;;;2.23;;
6127;SDS011;7073;42.672;23.256;2023-08-07T00:14:08;2.53;;;2.33;;
6127;SDS011;7073;42.672;23.256;2023-08-07T00:16:35;2.30;;;2.17;;
6127;SDS011;7073;42.672;23.256;2023-08-07T00:19:01;2.83;;;2.70;;
6127;SDS011;7073;42.672;23.256;2023-08-07T00:21:28;2.83;;;2.63;;
6127;SDS011;7073;42.672;23.256;2023-08-07T00:23:54;2.33;;;2.23;;
6127;SDS011;7073;42.672;23.256;2023-08-07T00:26:21;1.97;;;1.87;;
6127;SDS011;7073;42.672;23.256;2023-08-07T00:28:49;2.60;;;2.40;;
6127;SDS011;7073;42.672;23.256;2023-08-07T00:31:15;2.10;;;2.00;;
6127;SDS011;7073;42.672;23.256;2023-08-07T00:33:42;2.00;;;1.90;;
6127;SDS011;7073;42.672;23.256;2023-08-07T00:36:09;2.10;;;2.00;;
6127;SDS011;7073;42.672;23.256;2023-08-07T00:38:35;2.00;;;1.90;;
6127;SDS011;7073;42.672;23.256;2023-08-07T00:41:02;2.10;;;2.00;;
6127;SDS011;7073;42.672;23.256;2023-08-07T00:43:30;2.10;;;2.00;;
6127;SDS011;7073;42.672;23.256;2023-08-07T00:45:58;2.17;;;2.07;;
6127;SDS011;7073;42.672;23.256;2023-08-07T00:48:24;2.33;;;2.13;;
6127;SDS011;7073;42.672;23.256;2023-08-07T00:50:51;2.10;;;2.00;;
6127;SDS011;7073;42.672;23.256;2023-08-07T00:53:18;2.00;;;1.90;;
6127;SDS011;7073;42.672;23.256;2023-08-07T00:55:44;1.90;;;1.80;;
6127;SDS011;7073;42.672;23.256;2023-08-07T00:58:11;1.90;;;1.80;;
6127;SDS011;7073;42.672;23.256;2023-08-07T01:00:38;1.87;;;1.77;;
6127;SDS011;7073;42.672;23.256;2023-08-07T01:03:08;2.50;;;2.30;;
6127;SDS011;7073;42.672;23.256;2023-08-07T01:05:34;2.00;;;1.90;;
6127;SDS011;7073;42.672;23.256;2023-08-07T01:08:01;2.00;;;1.90;;
6127;SDS011;7073;42.672;23.256;2023-08-07T01:10:30;2.10;;;2.00;;
6127;SDS011;7073;42.672;23.256;2023-08-07T01:13:00;2.30;;;2.20;;
6127;SDS011;7073;42.672;23.256;2023-08-07T01:15:30;2.37;;;2.27;;
6127;SDS011;7073;42.672;23.256;2023-08-07T01:17:56;2.00;;;1.90;;
6127;SDS011;7073;42.672;23.256;2023-08-07T01:20:25;2.00;;;1.90;;
6127;SDS011;7073;42.672;23.256;2023-08-07T01:22:53;2.03;;;1.93;;
6127;SDS011;7073;42.672;23.256;2023-08-07T01:25:19;1.87;;;1.77;;
6127;SDS011;7073;42.672;23.256;2023-08-07T01:27:46;1.90;;;1.80;;
6127;SDS011;7073;42.672;23.256;2023-08-07T01:30:17;1.80;;;1.70;;
6127;SDS011;7073;42.672;23.256;2023-08-07T01:32:47;1.93;;;1.83;;
6127;SDS011;7073;42.672;23.256;2023-08-07T01:35:16;1.87;;;1.77;;
6127;SDS011;7073;42.672;23.256;2023-08-07T01:37:42;1.70;;;1.60;;
6127;SDS011;7073;42.672;23.256;2023-08-07T01:40:12;2.10;;;2.00;;
6127;SDS011;7073;42.672;23.256;2023-08-07T01:42:39;2.83;;;2.63;;
6127;SDS011;7073;42.672;23.256;2023-08-07T01:45:06;1.83;;;1.73;;
6127;SDS011;7073;42.672;23.256;2023-08-07T01:47:32;1.67;;;1.57;;
6127;SDS011;7073;42.672;23.256;2023-08-07T01:49:59;1.90;;;1.80;;
6127;SDS011;7073;42.672;23.256;2023-08-07T01:52:26;1.60;;;1.50;;
6127;SDS011;7073;42.672;23.256;2023-08-07T01:54:52;3.30;;;1.67;;
6127;SDS011;7073;42.672;23.256;2023-08-07T01:57:20;1.60;;;1.50;;
6127;SDS011;7073;42.672;23.256;2023-08-07T01:59:47;2.00;;;1.90;;
6127;SDS011;7073;42.672;23.256;2023-08-07T02:02:13;1.90;;;1.80;;
6127;SDS011;7073;42.672;23.256;2023-08-07T02:04:40;1.80;;;1.70;;
6127;SDS011;7073;42.672;23.256;2023-08-07T02:07:06;1.70;;;1.60;;
6127;SDS011;7073;42.672;23.256;2023-08-07T02:09:33;1.70;;;1.60;;
6127;SDS011;7073;42.672;23.256;2023-08-07T02:11:59;1.80;;;1.70;;
6127;SDS011;7073;42.672;23.256;2023-08-07T02:14:28;3.20;;;1.90;;
6127;SDS011;7073;42.672;23.256;2023-08-07T02:16:54;1.70;;;1.60;;
6127;SDS011;7073;42.672;23.256;2023-08-07T02:19:21;2.40;;;2.30;;
6127;SDS011;7073;42.672;23.256;2023-08-07T02:21:47;1.70;;;1.60;;
6127;SDS011;7073;42.672;23.256;2023-08-07T02:24:14;2.03;;;1.93;;
6127;SDS011;7073;42.672;23.256;2023-08-07T02:26:40;1.70;;;1.60;;
6127;SDS011;7073;42.672;23.256;2023-08-07T02:29:07;2.90;;;2.70;;
6127;SDS011;7073;42.672;23.256;2023-08-07T02:31:35;1.70;;;1.60;;
6127;SDS011;7073;42.672;23.256;2023-08-07T02:34:02;1.60;;;1.50;;
6127;SDS011;7073;42.672;23.256;2023-08-07T02:36:28;1.60;;;1.50;;
6127;SDS011;7073;42.672;23.256;2023-08-07T02:38:55;1.70;;;1.60;;
6127;SDS011;7073;42.672;23.256;2023-08-07T02:41:21;2.50;;;2.30;;
6127;SDS011;7073;42.672;23.256;2023-08-07T02:43:48;2.53;;;2.33;;
6127;SDS011;7073;42.672;23.256;2023-08-07T02:46:14;2.70;;;2.00;;
6127;SDS011;7073;42.672;23.256;2023-08-07T02:48:42;1.80;;;1.70;;
6127;SDS011;7073;42.672;23.256;2023-08-07T02:51:09;2.37;;;2.17;;
6127;SDS011;7073;42.672;23.256;2023-08-07T02:53:35;1.60;;;1.50;;
6127;SDS011;7073;42.672;23.256;2023-08-07T02:56:02;1.50;;;1.40;;
6127;SDS011;7073;42.672;23.256;2023-08-07T02:58:29;2.03;;;1.93;;
6127;SDS011;7073;42.672;23.256;2023-08-07T03:00:55;1.50;;;1.40;;
6127;SDS011;7073;42.672;23.256;2023-08-07T03:03:22;3.83;;;2.90;;
6127;SDS011;7073;42.672;23.256;2023-08-07T03:05:50;1.60;;;1.50;;
6127;SDS011;7073;42.672;23.256;2023-08-07T03:08:16;2.77;;;2.60;;
6127;SDS011;7073;42.672;23.256;2023-08-07T03:10:49;2.23;;;2.13;;
6127;SDS011;7073;42.672;23.256;2023-08-07T03:13:15;3.10;;;2.17;;
6127;SDS011;7073;42.672;23.256;2023-08-07T03:15:42;1.40;;;1.30;;
6127;SDS011;7073;42.672;23.256;2023-08-07T03:18:08;9.20;;;4.07;;
6127;SDS011;7073;42.672;23.256;2023-08-07T03:20:36;3.37;;;2.37;;
6127;SDS011;7073;42.672;23.256;2023-08-07T03:23:03;1.50;;;1.40;;
6127;SDS011;7073;42.672;23.256;2023-08-07T03:25:30;1.30;;;1.20;;
6127;SDS011;7073;42.672;23.256;2023-08-07T03:27:57;1.60;;;1.50;;
6127;SDS011;7073;42.672;23.256;2023-08-07T03:30:23;1.53;;;1.43;;
6127;SDS011;7073;42.672;23.256;2023-08-07T03:32:50;1.60;;;1.50;;
6127;SDS011;7073;42.672;23.256;2023-08-07T03:35:16;1.30;;;1.20;;
6127;SDS011;7073;42.672;23.256;2023-08-07T03:37:43;8.40;;;2.47;;
6127;SDS011;7073;42.672;23.256;2023-08-07T03:40:11;1.63;;;1.53;;
6127;SDS011;7073;42.672;23.256;2023-08-07T03:42:37;3.10;;;2.53;;
6127;SDS011;7073;42.672;23.256;2023-08-07T03:45:04;1.30;;;1.20;;
6127;SDS011;7073;42.672;23.256;2023-08-07T03:47:31;2.60;;;2.40;;
6127;SDS011;7073;42.672;23.256;2023-08-07T03:49:57;1.57;;;1.47;;
6127;SDS011;7073;42.672;23.256;2023-08-07T03:52:24;2.37;;;1.90;;
6127;SDS011;7073;42.672;23.256;2023-08-07T03:54:50;1.30;;;1.20;;
6127;SDS011;7073;42.672;23.256;2023-08-07T03:57:18;2.40;;;2.20;;
6127;SDS011;7073;42.672;23.256;2023-08-07T03:59:45;3.60;;;2.47;;
6127;SDS011;7073;42.672;23.256;2023-08-07T04:02:11;1.40;;;1.30;;
6127;SDS011;7073;42.672;23.256;2023-08-07T04:04:38;1.93;;;1.83;;
6127;SDS011;7073;42.672;23.256;2023-08-07T04:07:04;2.03;;;1.50;;
6127;SDS011;7073;42.672;23.256;2023-08-07T04:09:31;1.83;;;1.70;;
6127;SDS011;7073;42.672;23.256;2023-08-07T04:11:57;1.40;;;1.30;;
6127;SDS011;7073;42.672;23.256;2023-08-07T04:14:25;2.20;;;2.00;;
6127;SDS011;7073;42.672;23.256;2023-08-07T04:16:52;2.20;;;2.00;;
6127;SDS011;7073;42.672;23.256;2023-08-07T04:19:18;1.83;;;1.73;;
6127;SDS011;7073;42.672;23.256;2023-08-07T04:21:45;2.03;;;1.83;;
6127;SDS011;7073;42.672;23.256;2023-08-07T04:24:12;3.67;;;1.50;;
6127;SDS011;7073;42.672;23.256;2023-08-07T04:26:38;1.40;;;1.30;;
6127;SDS011;7073;42.672;23.256;2023-08-07T04:29:05;3.00;;;2.40;;
6127;SDS011;7073;42.672;23.256;2023-08-07T04:31:33;3.67;;;3.40;;
6127;SDS011;7073;42.672;23.256;2023-08-07T04:34:00;1.83;;;1.73;;
6127;SDS011;7073;42.672;23.256;2023-08-07T04:36:26;2.77;;;1.97;;
6127;SDS011;7073;42.672;23.256;2023-08-07T04:38:53;2.17;;;1.97;;
6127;SDS011;7073;42.672;23.256;2023-08-07T04:41:20;2.07;;;1.70;;
6127;SDS011;7073;42.672;23.256;2023-08-07T04:43:47;2.80;;;2.60;;
6127;SDS011;7073;42.672;23.256;2023-08-07T04:46:14;1.50;;;1.40;;
6127;SDS011;7073;42.672;23.256;2023-08-07T04:48:42;2.77;;;2.57;;
6127;SDS011;7073;42.672;23.256;2023-08-07T04:51:08;1.40;;;1.30;;
6127;SDS011;7073;42.672;23.256;2023-08-07T04:53:35;1.30;;;1.20;;
6127;SDS011;7073;42.672;23.256;2023-08-07T04:56:02;1.50;;;1.40;;
6127;SDS011;7073;42.672;23.256;2023-08-07T04:58:28;1.50;;;1.40;;
6127;SDS011;7073;42.672;23.256;2023-08-07T05:00:55;3.30;;;2.33;;
6127;SDS011;7073;42.672;23.256;2023-08-07T05:03:22;2.57;;;2.33;;
6127;SDS011;7073;42.672;23.256;2023-08-07T05:05:50;2.30;;;2.10;;
6127;SDS011;7073;42.672;23.256;2023-08-07T05:08:16;1.50;;;1.40;;
6127;SDS011;7073;42.672;23.256;2023-08-07T05:10:43;1.67;;;1.57;;
6127;SDS011;7073;42.672;23.256;2023-08-07T05:13:09;3.07;;;2.57;;
6127;SDS011;7073;42.672;23.256;2023-08-07T05:15:36;2.57;;;2.37;;
6127;SDS011;7073;42.672;23.256;2023-08-07T05:18:02;1.53;;;1.43;;
6127;SDS011;7073;42.672;23.256;2023-08-07T05:20:29;2.00;;;1.80;;
6127;SDS011;7073;42.672;23.256;2023-08-07T05:22:57;1.73;;;1.63;;
6127;SDS011;7073;42.672;23.256;2023-08-07T05:25:23;2.17;;;2.07;;
6127;SDS011;7073;42.672;23.256;2023-08-07T05:27:50;1.60;;;1.50;;
6127;SDS011;7073;42.672;23.256;2023-08-07T05:30:16;1.40;;;1.30;;
6127;SDS011;7073;42.672;23.256;2023-08-07T05:32:43;2.50;;;2.30;;
6127;SDS011;7073;42.672;23.256;2023-08-07T05:35:09;2.60;;;2.40;;
6127;SDS011;7073;42.672;23.256;2023-08-07T05:37:36;3.00;;;1.97;;
6127;SDS011;7073;42.672;23.256;2023-08-07T05:40:04;1.60;;;1.50;;
6127;SDS011;7073;42.672;23.256;2023-08-07T05:42:31;2.37;;;1.93;;
6127;SDS011;7073;42.672;23.256;2023-08-07T05:44:58;3.63;;;2.37;;
6127;SDS011;7073;42.672;23.256;2023-08-07T05:47:24;4.00;;;3.80;;
6127;SDS011;7073;42.672;23.256;2023-08-07T05:49:51;2.80;;;2.40;;
6127;SDS011;7073;42.672;23.256;2023-08-07T05:52:17;2.43;;;2.23;;
6127;SDS011;7073;42.672;23.256;2023-08-07T05:54:44;2.90;;;2.30;;
6127;SDS011;7073;42.672;23.256;2023-08-07T05:57:12;3.00;;;2.80;;
6127;SDS011;7073;42.672;23.256;2023-08-07T05:59:38;2.00;;;1.90;;
6127;SDS011;7073;42.672;23.256;2023-08-07T06:02:05;2.23;;;2.03;;
6127;SDS011;7073;42.672;23.256;2023-08-07T06:04:32;1.80;;;1.70;;
6127;SDS011;7073;42.672;23.256;2023-08-07T06:06:58;2.70;;;2.50;;
6127;SDS011;7073;42.672;23.256;2023-08-07T06:09:25;1.67;;;1.57;;
6127;SDS011;7073;42.672;23.256;2023-08-07T06:11:51;1.73;;;1.63;;
6127;SDS011;7073;42.672;23.256;2023-08-07T06:14:19;2.27;;;2.17;;
6127;SDS011;7073;42.672;23.256;2023-08-07T06:16:46;2.23;;;2.10;;
6127;SDS011;7073;42.672;23.256;2023-08-07T06:19:13;2.10;;;1.90;;
6127;SDS011;7073;42.672;23.256;2023-08-07T06:21:39;2.00;;;1.90;;
6127;SDS011;7073;42.672;23.256;2023-08-07T06:24:06;2.30;;;2.10;;
6127;SDS011;7073;42.672;23.256;2023-08-07T06:26:33;1.77;;;1.67;;
6127;SDS011;7073;42.672;23.256;2023-08-07T06:28:59;3.50;;;3.30;;
6127;SDS011;7073;42.672;23.256;2023-08-07T06:31:27;2.67;;;2.47;;
6127;SDS011;7073;42.672;23.256;2023-08-07T06:33:53;2.00;;;1.90;;
6127;SDS011;7073;42.672;23.256;2023-08-07T06:36:20;2.20;;;2.10;;
6127;SDS011;7073;42.672;23.256;2023-08-07T06:38:47;2.20;;;2.10;;
6127;SDS011;7073;42.672;23.256;2023-08-07T06:41:13;2.43;;;2.33;;
6127;SDS011;7073;42.672;23.256;2023-08-07T06:43:40;2.27;;;2.17;;
6127;SDS011;7073;42.672;23.256;2023-08-07T06:46:07;2.63;;;2.43;;
6127;SDS011;7073;42.672;23.256;2023-08-07T06:48:34;2.03;;;1.93;;
6127;SDS011;7073;42.672;23.256;2023-08-07T06:51:01;2.23;;;2.13;;
6127;SDS011;7073;42.672;23.256;2023-08-07T06:53:28;2.00;;;1.90;;
6127;SDS011;7073;42.672;23.256;2023-08-07T06:55:54;2.10;;;2.00;;
6127;SDS011;7073;42.672;23.256;2023-08-07T06:58:21;2.40;;;2.30;;
6127;SDS011;7073;42.672;23.256;2023-08-07T07:00:47;2.20;;;2.10;;
6127;SDS011;7073;42.672;23.256;2023-08-07T07:03:14;2.40;;;2.30;;
6127;SDS011;7073;42.672;23.256;2023-08-07T07:05:42;2.60;;;2.50;;
6127;SDS011;7073;42.672;23.256;2023-08-07T07:08:08;3.50;;;3.30;;
6127;SDS011;7073;42.672;23.256;2023-08-07T07:10:35;2.40;;;2.30;;
6127;SDS011;7073;42.672;23.256;2023-08-07T07:13:01;2.67;;;2.57;;
6127;SDS011;7073;42.672;23.256;2023-08-07T07:15:28;4.00;;;3.57;;
6127;SDS011;7073;42.672;23.256;2023-08-07T07:17:55;3.10;;;2.90;;
6127;SDS011;7073;42.672;23.256;2023-08-07T07:20:22;2.70;;;2.60;;
6127;SDS011;7073;42.672;23.256;2023-08-07T07:22:49;2.40;;;2.30;;
6127;SDS011;7073;42.672;23.256;2023-08-07T07:25:16;2.50;;;2.40;;
6127;SDS011;7073;42.672;23.256;2023-08-07T07:27:43;2.40;;;2.30;;
6127;SDS011;7073;42.672;23.256;2023-08-07T07:30:09;2.40;;;2.30;;
6127;SDS011;7073;42.672;23.256;2023-08-07T07:32:36;2.50;;;2.40;;
6127;SDS011;7073;42.672;23.256;2023-08-07T07:35:03;2.60;;;2.50;;
6127;SDS011;7073;42.672;23.256;2023-08-07T07:37:30;2.60;;;2.50;;
6127;SDS011;7073;42.672;23.256;2023-08-07T07:39:57;5.80;;;3.67;;
6127;SDS011;7073;42.672;23.256;2023-08-07T07:42:24;2.60;;;2.50;;
6127;SDS011;7073;42.672;23.256;2023-08-07T07:44:50;2.90;;;2.80;;
6127;SDS011;7073;42.672;23.256;2023-08-07T07:47:17;3.10;;;3.00;;
6127;SDS011;7073;42.672;23.256;2023-08-07T07:49:45;3.20;;;3.10;;
6127;SDS011;7073;42.672;23.256;2023-08-07T07:52:11;2.90;;;2.73;;
6127;SDS011;7073;42.672;23.256;2023-08-07T07:54:38;3.00;;;2.90;;
6127;SDS011;7073;42.672;23.256;2023-08-07T07:57:06;2.87;;;2.77;;
6127;SDS011;7073;42.672;23.256;2023-08-07T07:59:33;3.03;;;2.90;;
6127;SDS011;7073;42.672;23.256;2023-08-07T08:01:59;3.00;;;2.90;;
6127;SDS011;7073;42.672;23.256;2023-08-07T08:04:26;2.70;;;2.60;;
6127;SDS011;7073;42.672;23.256;2023-08-07T08:06:53;2.80;;;2.70;;
6127;SDS011;7073;42.672;23.256;2023-08-07T08:09:19;3.13;;;2.93;;
6127;SDS011;7073;42.672;23.256;2023-08-07T08:11:46;2.90;;;2.80;;
6127;SDS011;7073;42.672;23.256;2023-08-07T08:14:14;3.57;;;3.33;;
6127;SDS011;7073;42.672;23.256;2023-08-07T08:16:41;3.00;;;2.90;;
6127;SDS011;7073;42.672;23.256;2023-08-07T08:19:08;2.87;;;2.77;;
6127;SDS011;7073;42.672;23.256;2023-08-07T08:21:36;2.90;;;2.80;;
6127;SDS011;7073;42.672;23.256;2023-08-07T08:24:02;3.00;;;2.90;;
6127;SDS011;7073;42.672;23.256;2023-08-07T08:26:29;3.60;;;3.40;;
6127;SDS011;7073;42.672;23.256;2023-08-07T08:28:56;2.80;;;2.70;;
6127;SDS011;7073;42.672;23.256;2023-08-07T08:31:24;3.00;;;2.90;;
6127;SDS011;7073;42.672;23.256;2023-08-07T08:33:50;3.00;;;2.80;;
6127;SDS011;7073;42.672;23.256;2023-08-07T08:36:17;2.60;;;2.50;;
6127;SDS011;7073;42.672;23.256;2023-08-07T08:38:43;2.90;;;2.80;;
6127;SDS011;7073;42.672;23.256;2023-08-07T08:41:10;2.90;;;2.80;;
6127;SDS011;7073;42.672;23.256;2023-08-07T08:43:37;2.87;;;2.70;;
6127;SDS011;7073;42.672;23.256;2023-08-07T08:46:04;2.80;;;2.70;;
6127;SDS011;7073;42.672;23.256;2023-08-07T08:48:33;2.90;;;2.80;;
6127;SDS011;7073;42.672;23.256;2023-08-07T08:51:00;2.90;;;2.80;;
6127;SDS011;7073;42.672;23.256;2023-08-07T08:53:28;2.80;;;2.70;;
6127;SDS011;7073;42.672;23.256;2023-08-07T08:55:55;3.07;;;2.90;;
6127;SDS011;7073;42.672;23.256;2023-08-07T08:58:21;2.70;;;2.60;;
6127;SDS011;7073;42.672;23.256;2023-08-07T09:00:51;2.80;;;2.70;;
6127;SDS011;7073;42.672;23.256;2023-08-07T09:03:18;5.30;;;5.00;;
6127;SDS011;7073;42.672;23.256;2023-08-07T09:05:46;3.40;;;3.30;;
6127;SDS011;7073;42.672;23.256;2023-08-07T09:08:13;2.90;;;2.80;;
6127;SDS011;7073;42.672;23.256;2023-08-07T09:10:40;2.90;;;2.80;;
6127;SDS011;7073;42.672;23.256;2023-08-07T09:13:09;3.00;;;2.80;;
6127;SDS011;7073;42.672;23.256;2023-08-07T09:15:37;3.63;;;3.43;;
6127;SDS011;7073;42.672;23.256;2023-08-07T09:18:05;5.50;;;3.30;;
6127;SDS011;7073;42.672;23.256;2023-08-07T09:20:32;2.90;;;2.80;;
6127;SDS011;7073;42.672;23.256;2023-08-07T09:23:01;3.20;;;3.10;;
6127;SDS011;7073;42.672;23.256;2023-08-07T09:25:27;3.30;;;3.20;;
6127;SDS011;7073;42.672;23.256;2023-08-07T09:27:54;3.00;;;2.90;;
6127;SDS011;7073;42.672;23.256;2023-08-07T09:30:21;2.80;;;2.70;;
6127;SDS011;7073;42.672;23.256;2023-08-07T09:32:47;3.77;;;3.57;;
6127;SDS011;7073;42.672;23.256;2023-08-07T09:35:14;3.40;;;3.13;;
6127;SDS011;7073;42.672;23.256;2023-08-07T09:37:42;2.90;;;2.80;;
6127;SDS011;7073;42.672;23.256;2023-08-07T09:40:10;3.40;;;3.30;;
6127;SDS011;7073;42.672;23.256;2023-08-07T09:42:40;2.80;;;2.70;;
6127;SDS011;7073;42.672;23.256;2023-08-07T09:45:18;5.00;;;4.70;;
6127;SDS011;7073;42.672;23.256;2023-08-07T09:47:45;3.10;;;3.00;;
6127;SDS011;7073;42.672;23.256;2023-08-07T09:50:15;3.07;;;2.97;;
6127;SDS011;7073;42.672;23.256;2023-08-07T09:52:45;3.50;;;3.30;;
6127;SDS011;7073;42.672;23.256;2023-08-07T09:55:13;2.83;;;2.73;;
6127;SDS011;7073;42.672;23.256;2023-08-07T09:57:41;3.27;;;3.07;;
6127;SDS011;7073;42.672;23.256;2023-08-07T10:00:08;3.10;;;3.00;;
6127;SDS011;7073;42.672;23.256;2023-08-07T10:02:37;3.23;;;3.03;;
6127;SDS011;7073;42.672;23.256;2023-08-07T10:05:04;3.50;;;3.30;;
6127;SDS011;7073;42.672;23.256;2023-08-07T10:07:31;3.50;;;3.30;;
6127;SDS011;7073;42.672;23.256;2023-08-07T10:09:58;3.00;;;2.90;;
6127;SDS011;7073;42.672;23.256;2023-08-07T10:12:26;3.30;;;3.20;;
6127;SDS011;7073;42.672;23.256;2023-08-07T10:14:53;3.40;;;3.30;;
6127;SDS011;7073;42.672;23.256;2023-08-07T10:17:20;3.33;;;3.23;;
6127;SDS011;7073;42.672;23.256;2023-08-07T10:19:47;3.40;;;3.30;;
6127;SDS011;7073;42.672;23.256;2023-08-07T10:22:14;3.60;;;3.40;;
6127;SDS011;7073;42.672;23.256;2023-08-07T10:24:42;3.30;;;3.20;;
6127;SDS011;7073;42.672;23.256;2023-08-07T10:27:10;3.90;;;3.70;;
6127;SDS011;7073;42.672;23.256;2023-08-07T10:29:38;3.37;;;3.27;;
6127;SDS011;7073;42.672;23.256;2023-08-07T10:32:05;4.07;;;3.87;;
6127;SDS011;7073;42.672;23.256;2023-08-07T10:34:33;3.30;;;3.20;;
6127;SDS011;7073;42.672;23.256;2023-08-07T10:37:00;3.90;;;3.70;;
6127;SDS011;7073;42.672;23.256;2023-08-07T10:39:26;4.47;;;4.27;;
6127;SDS011;7073;42.672;23.256;2023-08-07T10:41:53;6.33;;;6.03;;
6127;SDS011;7073;42.672;23.256;2023-08-07T10:44:20;3.70;;;3.50;;
6127;SDS011;7073;42.672;23.256;2023-08-07T10:46:49;3.90;;;3.70;;
6127;SDS011;7073;42.672;23.256;2023-08-07T10:49:34;3.40;;;3.30;;
6127;SDS011;7073;42.672;23.256;2023-08-07T10:52:07;4.00;;;3.80;;
6127;SDS011;7073;42.672;23.256;2023-08-07T10:54:37;3.83;;;3.63;;
6127;SDS011;7073;42.672;23.256;2023-08-07T10:57:09;3.50;;;3.40;;
6127;SDS011;7073;42.672;23.256;2023-08-07T10:59:37;4.00;;;3.80;;
6127;SDS011;7073;42.672;23.256;2023-08-07T11:02:05;3.60;;;3.50;;
6127;SDS011;7073;42.672;23.256;2023-08-07T11:04:34;3.80;;;3.60;;
6127;SDS011;7073;42.672;23.256;2023-08-07T11:07:01;4.10;;;3.90;;
6127;SDS011;7073;42.672;23.256;2023-08-07T11:09:28;4.30;;;4.10;;
6127;SDS011;7073;42.672;23.256;2023-08-07T11:11:54;3.90;;;3.70;;
6127;SDS011;7073;42.672;23.256;2023-08-07T11:14:21;5.40;;;3.90;;
6127;SDS011;7073;42.672;23.256;2023-08-07T11:16:48;3.80;;;3.60;;
6127;SDS011;7073;42.672;23.256;2023-08-07T11:19:16;4.90;;;4.60;;
6127;SDS011;7073;42.672;23.256;2023-08-07T11:21:43;4.33;;;4.13;;
6127;SDS011;7073;42.672;23.256;2023-08-07T11:24:11;4.87;;;4.57;;
6127;SDS011;7073;42.672;23.256;2023-08-07T11:26:38;3.90;;;3.70;;
6127;SDS011;7073;42.672;23.256;2023-08-07T11:29:06;3.80;;;3.60;;
6127;SDS011;7073;42.672;23.256;2023-08-07T11:31:34;4.20;;;4.00;;
6127;SDS011;7073;42.672;23.256;2023-08-07T11:34:01;3.80;;;3.60;;
6127;SDS011;7073;42.672;23.256;2023-08-07T11:36:29;3.70;;;3.60;;
6127;SDS011;7073;42.672;23.256;2023-08-07T11:38:56;3.73;;;3.63;;
6127;SDS011;7073;42.672;23.256;2023-08-07T11:41:23;4.90;;;4.50;;
6127;SDS011;7073;42.672;23.256;2023-08-07T11:43:50;4.10;;;3.90;;
6127;SDS011;7073;42.672;23.256;2023-08-07T11:46:16;3.90;;;3.70;;
6127;SDS011;7073;42.672;23.256;2023-08-07T11:48:43;3.97;;;3.77;;
6127;SDS011;7073;42.672;23.256;2023-08-07T11:51:10;3.90;;;3.70;;
6127;SDS011;7073;42.672;23.256;2023-08-07T11:53:39;3.87;;;3.67;;
6127;SDS011;7073;42.672;23.256;2023-08-07T11:56:06;3.80;;;3.60;;
6127;SDS011;7073;42.672;23.256;2023-08-07T11:58:34;3.80;;;3.60;;
6127;SDS011;7073;42.672;23.256;2023-08-07T12:01:03;5.07;;;4.83;;
6127;SDS011;7073;42.672;23.256;2023-08-07T12:03:30;4.03;;;3.83;;
6127;SDS011;7073;42.672;23.256;2023-08-07T12:06:01;4.27;;;4.07;;
6127;SDS011;7073;42.672;23.256;2023-08-07T12:08:30;3.93;;;3.73;;
6127;SDS011;7073;42.672;23.256;2023-08-07T12:11:00;3.90;;;3.70;;
6127;SDS011;7073;42.672;23.256;2023-08-07T12:13:27;3.93;;;3.73;;
6127;SDS011;7073;42.672;23.256;2023-08-07T12:15:53;4.50;;;4.30;;
6127;SDS011;7073;42.672;23.256;2023-08-07T12:18:20;4.67;;;4.47;;
6127;SDS011;7073;42.672;23.256;2023-08-07T12:20:48;4.57;;;4.37;;
6127;SDS011;7073;42.672;23.256;2023-08-07T12:23:15;4.30;;;4.10;;
6127;SDS011;7073;42.672;23.256;2023-08-07T12:25:42;4.10;;;3.90;;
6127;SDS011;7073;42.672;23.256;2023-08-07T12:28:10;4.60;;;4.30;;
6127;SDS011;7073;42.672;23.256;2023-08-07T12:30:37;4.57;;;4.17;;
6127;SDS011;7073;42.672;23.256;2023-08-07T12:33:04;4.00;;;3.80;;
6127;SDS011;7073;42.672;23.256;2023-08-07T12:35:32;4.20;;;4.00;;
6127;SDS011;7073;42.672;23.256;2023-08-07T12:37:59;4.10;;;3.90;;
6127;SDS011;7073;42.672;23.256;2023-08-07T12:40:26;4.37;;;4.17;;
6127;SDS011;7073;42.672;23.256;2023-08-07T12:42:53;5.00;;;4.70;;
6127;SDS011;7073;42.672;23.256;2023-08-07T12:45:21;4.33;;;4.13;;
6127;SDS011;7073;42.672;23.256;2023-08-07T12:47:48;3.97;;;3.77;;
6127;SDS011;7073;42.672;23.256;2023-08-07T12:50:14;4.30;;;4.10;;
6127;SDS011;7073;42.672;23.256;2023-08-07T12:52:41;5.53;;;5.13;;
6127;SDS011;7073;42.672;23.256;2023-08-07T12:55:07;5.00;;;4.80;;
6127;SDS011;7073;42.672;23.256;2023-08-07T12:57:34;4.50;;;4.30;;
6127;SDS011;7073;42.672;23.256;2023-08-07T13:00:01;4.33;;;4.13;;
6127;SDS011;7073;42.672;23.256;2023-08-07T13:02:29;4.10;;;3.90;;
6127;SDS011;7073;42.672;23.256;2023-08-07T13:04:55;4.63;;;4.43;;
6127;SDS011;7073;42.672;23.256;2023-08-07T13:07:23;4.57;;;4.37;;
6127;SDS011;7073;42.672;23.256;2023-08-07T13:09:50;4.70;;;4.50;;
6127;SDS011;7073;42.672;23.256;2023-08-07T13:12:16;4.20;;;4.00;;
6127;SDS011;7073;42.672;23.256;2023-08-07T13:14:43;4.40;;;4.20;;
6127;SDS011;7073;42.672;23.256;2023-08-07T13:17:09;4.80;;;4.50;;
6127;SDS011;7073;42.672;23.256;2023-08-07T13:19:37;5.30;;;5.10;;
6127;SDS011;7073;42.672;23.256;2023-08-07T13:22:04;4.73;;;4.50;;
6127;SDS011;7073;42.672;23.256;2023-08-07T13:24:31;4.80;;;4.60;;
6127;SDS011;7073;42.672;23.256;2023-08-07T13:26:57;4.50;;;4.30;;
6127;SDS011;7073;42.672;23.256;2023-08-07T13:29:24;4.10;;;3.90;;
6127;SDS011;7073;42.672;23.256;2023-08-07T13:31:51;4.30;;;4.10;;
6127;SDS011;7073;42.672;23.256;2023-08-07T13:34:17;4.30;;;4.10;;
6127;SDS011;7073;42.672;23.256;2023-08-07T13:36:45;4.50;;;4.30;;
6127;SDS011;7073;42.672;23.256;2023-08-07T13:39:12;4.70;;;4.50;;
6127;SDS011;7073;42.672;23.256;2023-08-07T13:41:38;4.73;;;4.53;;
6127;SDS011;7073;42.672;23.256;2023-08-07T13:44:05;4.40;;;4.20;;
6127;SDS011;7073;42.672;23.256;2023-08-07T13:46:32;7.53;;;4.50;;
6127;SDS011;7073;42.672;23.256;2023-08-07T13:48:58;5.03;;;4.60;;
6127;SDS011;7073;42.672;23.256;2023-08-07T13:51:25;5.07;;;4.87;;
6127;SDS011;7073;42.672;23.256;2023-08-07T13:53:53;4.30;;;4.10;;
6127;SDS011;7073;42.672;23.256;2023-08-07T13:56:19;7.20;;;5.00;;
6127;SDS011;7073;42.672;23.256;2023-08-07T13:58:46;6.90;;;6.50;;
6127;SDS011;7073;42.672;23.256;2023-08-07T14:01:12;4.63;;;4.43;;
6127;SDS011;7073;42.672;23.256;2023-08-07T14:03:39;5.13;;;4.83;;
6127;SDS011;7073;42.672;23.256;2023-08-07T14:06:06;4.23;;;4.03;;
6127;SDS011;7073;42.672;23.256;2023-08-07T14:08:32;4.60;;;4.40;;
6127;SDS011;7073;42.672;23.256;2023-08-07T14:11:01;5.00;;;4.60;;
6127;SDS011;7073;42.672;23.256;2023-08-07T14:13:27;4.70;;;4.50;;
6127;SDS011;7073;42.672;23.256;2023-08-07T14:15:54;4.40;;;4.20;;
6127;SDS011;7073;42.672;23.256;2023-08-07T14:18:20;5.43;;;5.10;;
6127;SDS011;7073;42.672;23.256;2023-08-07T14:20:47;4.00;;;3.80;;
6127;SDS011;7073;42.672;23.256;2023-08-07T14:23:14;5.27;;;4.87;;
6127;SDS011;7073;42.672;23.256;2023-08-07T14:25:40;5.47;;;5.17;;
6127;SDS011;7073;42.672;23.256;2023-08-07T14:28:08;4.70;;;4.50;;
6127;SDS011;7073;42.672;23.256;2023-08-07T14:30:34;4.50;;;4.30;;
6127;SDS011;7073;42.672;23.256;2023-08-07T14:33:01;4.20;;;4.00;;
6127;SDS011;7073;42.672;23.256;2023-08-07T14:35:27;3.97;;;3.77;;
6127;SDS011;7073;42.672;23.256;2023-08-07T14:37:54;4.23;;;4.03;;
6127;SDS011;7073;42.672;23.256;2023-08-07T14:40:21;4.20;;;4.00;;
6127;SDS011;7073;42.672;23.256;2023-08-07T14:42:47;5.33;;;5.00;;
6127;SDS011;7073;42.672;23.256;2023-08-07T14:45:17;4.00;;;3.80;;
6127;SDS011;7073;42.672;23.256;2023-08-07T14:47:45;3.80;;;3.60;;
6127;SDS011;7073;42.672;23.256;2023-08-07T14:50:12;4.47;;;4.27;;
6127;SDS011;7073;42.672;23.256;2023-08-07T14:52:38;4.00;;;3.80;;
6127;SDS011;7073;42.672;23.256;2023-08-07T14:55:05;4.00;;;3.80;;
6127;SDS011;7073;42.672;23.256;2023-08-07T14:57:32;3.90;;;3.70;;
6127;SDS011;7073;42.672;23.256;2023-08-07T14:59:59;4.00;;;3.80;;